sensor_id;sensor_type;location;lat;lon;timestamp;P1;durP1;ratioP1;P2;durP2;ratioP2
22256;SDS011;11297;42.686;23.374;2022-11-20T00:03:36;6.53;;;5.83;;
22256;SDS011;11297;42.686;23.374;2022-11-20T00:06:02;9.87;;;6.23;;
22256;SDS011;11297;42.686;23.374;2022-11-20T00:08:30;8.43;;;6.30;;
22256;SDS011;11297;42.686;23.374;2022-11-20T00:10:55;7.20;;;6.47;;
22256;SDS011;11297;42.686;23.374;2022-11-20T00:13:21;9.23;;;6.40;;
22256;SDS011;11297;42.686;23.374;2022-11-20T00:15:46;8.33;;;6.53;;
22256;SDS011;11297;42.686;23.374;2022-11-20T00:18:12;8.10;;;6.17;;
22256;SDS011;11297;42.686;23.374;2022-11-20T00:20:37;7.97;;;5.90;;
22256;SDS011;11297;42.686;23.374;2022-11-20T00:23:03;8.07;;;6.47;;
22256;SDS011;11297;42.686;23.374;2022-11-20T00:25:28;8.70;;;6.30;;
22256;SDS011;11297;42.686;23.374;2022-11-20T00:27:53;6.83;;;5.67;;
22256;SDS011;11297;42.686;23.374;2022-11-20T00:30:19;9.20;;;6.33;;
22256;SDS011;11297;42.686;23.374;2022-11-20T00:32:44;10.20;;;6.03;;
22256;SDS011;11297;42.686;23.374;2022-11-20T00:35:10;6.53;;;5.00;;
22256;SDS011;11297;42.686;23.374;2022-11-20T00:37:35;8.47;;;5.30;;
22256;SDS011;11297;42.686;23.374;2022-11-20T00:40:00;6.53;;;3.77;;
22256;SDS011;11297;42.686;23.374;2022-11-20T00:42:26;9.87;;;5.80;;
22256;SDS011;11297;42.686;23.374;2022-11-20T00:44:51;7.40;;;5.83;;
22256;SDS011;11297;42.686;23.374;2022-11-20T00:47:17;6.90;;;4.70;;
22256;SDS011;11297;42.686;23.374;2022-11-20T00:49:42;6.10;;;3.93;;
22256;SDS011;11297;42.686;23.374;2022-11-20T00:52:08;6.23;;;3.90;;
22256;SDS011;11297;42.686;23.374;2022-11-20T00:54:33;6.10;;;4.60;;
22256;SDS011;11297;42.686;23.374;2022-11-20T00:56:59;7.50;;;4.70;;
22256;SDS011;11297;42.686;23.374;2022-11-20T00:59:24;8.07;;;5.17;;
22256;SDS011;11297;42.686;23.374;2022-11-20T01:01:50;7.10;;;4.63;;
22256;SDS011;11297;42.686;23.374;2022-11-20T01:04:15;5.30;;;3.30;;
22256;SDS011;11297;42.686;23.374;2022-11-20T01:06:41;7.17;;;4.20;;
22256;SDS011;11297;42.686;23.374;2022-11-20T01:09:10;4.83;;;3.33;;
22256;SDS011;11297;42.686;23.374;2022-11-20T01:11:39;4.83;;;3.10;;
22256;SDS011;11297;42.686;23.374;2022-11-20T01:14:10;3.30;;;2.90;;
22256;SDS011;11297;42.686;23.374;2022-11-20T01:16:38;3.50;;;3.17;;
22256;SDS011;11297;42.686;23.374;2022-11-20T01:19:06;5.80;;;3.53;;
22256;SDS011;11297;42.686;23.374;2022-11-20T01:21:36;5.07;;;3.07;;
22256;SDS011;11297;42.686;23.374;2022-11-20T01:24:04;5.37;;;3.37;;
22256;SDS011;11297;42.686;23.374;2022-11-20T01:26:33;2.57;;;1.30;;
22256;SDS011;11297;42.686;23.374;2022-11-20T01:29:00;2.43;;;1.63;;
22256;SDS011;11297;42.686;23.374;2022-11-20T01:31:28;3.10;;;1.70;;
22256;SDS011;11297;42.686;23.374;2022-11-20T01:33:55;2.97;;;2.17;;
22256;SDS011;11297;42.686;23.374;2022-11-20T01:36:24;5.23;;;2.80;;
22256;SDS011;11297;42.686;23.374;2022-11-20T01:38:51;3.93;;;3.30;;
22256;SDS011;11297;42.686;23.374;2022-11-20T01:41:23;6.50;;;3.23;;
22256;SDS011;11297;42.686;23.374;2022-11-20T01:44:08;3.30;;;2.90;;
22256;SDS011;11297;42.686;23.374;2022-11-20T01:46:37;4.37;;;3.50;;
22256;SDS011;11297;42.686;23.374;2022-11-20T01:52:01;5.77;;;3.90;;
22256;SDS011;11297;42.686;23.374;2022-11-20T01:54:36;4.03;;;1.70;;
22256;SDS011;11297;42.686;23.374;2022-11-20T01:57:06;4.30;;;1.20;;
22256;SDS011;11297;42.686;23.374;2022-11-20T01:59:35;2.17;;;1.30;;
22256;SDS011;11297;42.686;23.374;2022-11-20T02:02:03;5.53;;;1.27;;
22256;SDS011;11297;42.686;23.374;2022-11-20T02:04:29;2.57;;;1.40;;
22256;SDS011;11297;42.686;23.374;2022-11-20T02:06:57;3.37;;;2.27;;
22256;SDS011;11297;42.686;23.374;2022-11-20T02:09:25;3.77;;;2.80;;
22256;SDS011;11297;42.686;23.374;2022-11-20T02:11:51;7.57;;;4.07;;
22256;SDS011;11297;42.686;23.374;2022-11-20T02:14:17;5.60;;;2.60;;
22256;SDS011;11297;42.686;23.374;2022-11-20T02:16:46;4.33;;;2.67;;
22256;SDS011;11297;42.686;23.374;2022-11-20T02:19:34;6.53;;;2.53;;
22256;SDS011;11297;42.686;23.374;2022-11-20T02:22:04;2.73;;;2.17;;
22256;SDS011;11297;42.686;23.374;2022-11-20T02:24:39;4.93;;;2.60;;
22256;SDS011;11297;42.686;23.374;2022-11-20T02:27:09;4.27;;;1.73;;
22256;SDS011;11297;42.686;23.374;2022-11-20T02:29:38;3.87;;;1.43;;
22256;SDS011;11297;42.686;23.374;2022-11-20T02:32:05;5.20;;;2.27;;
22256;SDS011;11297;42.686;23.374;2022-11-20T02:34:30;4.50;;;2.13;;
22256;SDS011;11297;42.686;23.374;2022-11-20T02:36:56;2.67;;;2.20;;
22256;SDS011;11297;42.686;23.374;2022-11-20T02:39:24;3.40;;;2.10;;
22256;SDS011;11297;42.686;23.374;2022-11-20T02:41:52;3.73;;;1.70;;
22256;SDS011;11297;42.686;23.374;2022-11-20T02:44:18;2.13;;;1.20;;
22256;SDS011;11297;42.686;23.374;2022-11-20T02:46:44;5.20;;;2.17;;
22256;SDS011;11297;42.686;23.374;2022-11-20T02:49:10;4.20;;;1.80;;
22256;SDS011;11297;42.686;23.374;2022-11-20T02:51:35;4.00;;;1.90;;
22256;SDS011;11297;42.686;23.374;2022-11-20T02:54:01;3.17;;;1.57;;
22256;SDS011;11297;42.686;23.374;2022-11-20T02:56:26;2.10;;;1.83;;
22256;SDS011;11297;42.686;23.374;2022-11-20T02:58:52;2.63;;;1.10;;
22256;SDS011;11297;42.686;23.374;2022-11-20T03:01:18;4.97;;;1.47;;
22256;SDS011;11297;42.686;23.374;2022-11-20T03:03:43;2.50;;;1.10;;
22256;SDS011;11297;42.686;23.374;2022-11-20T03:06:08;2.43;;;1.37;;
22256;SDS011;11297;42.686;23.374;2022-11-20T03:08:34;2.57;;;0.97;;
22256;SDS011;11297;42.686;23.374;2022-11-20T03:11:03;2.23;;;1.00;;
22256;SDS011;11297;42.686;23.374;2022-11-20T03:13:31;1.37;;;0.90;;
22256;SDS011;11297;42.686;23.374;2022-11-20T03:15:56;2.77;;;1.23;;
22256;SDS011;11297;42.686;23.374;2022-11-20T03:18:21;3.60;;;1.10;;
22256;SDS011;11297;42.686;23.374;2022-11-20T03:20:47;2.33;;;0.93;;
22256;SDS011;11297;42.686;23.374;2022-11-20T03:23:12;2.10;;;1.03;;
22256;SDS011;11297;42.686;23.374;2022-11-20T03:25:38;2.73;;;1.13;;
22256;SDS011;11297;42.686;23.374;2022-11-20T03:28:03;1.37;;;0.87;;
22256;SDS011;11297;42.686;23.374;2022-11-20T03:30:29;2.57;;;1.07;;
22256;SDS011;11297;42.686;23.374;2022-11-20T03:32:54;2.23;;;0.90;;
22256;SDS011;11297;42.686;23.374;2022-11-20T03:35:19;3.23;;;1.07;;
22256;SDS011;11297;42.686;23.374;2022-11-20T03:37:45;3.37;;;1.20;;
22256;SDS011;11297;42.686;23.374;2022-11-20T03:40:11;4.07;;;1.57;;
22256;SDS011;11297;42.686;23.374;2022-11-20T03:42:36;3.13;;;1.20;;
22256;SDS011;11297;42.686;23.374;2022-11-20T03:45:20;2.30;;;0.93;;
22256;SDS011;11297;42.686;23.374;2022-11-20T03:47:45;3.27;;;1.50;;
22256;SDS011;11297;42.686;23.374;2022-11-20T03:50:11;5.43;;;1.57;;
22256;SDS011;11297;42.686;23.374;2022-11-20T03:52:39;2.63;;;1.60;;
22256;SDS011;11297;42.686;23.374;2022-11-20T03:55:05;1.00;;;0.90;;
22256;SDS011;11297;42.686;23.374;2022-11-20T03:57:31;1.77;;;1.40;;
22256;SDS011;11297;42.686;23.374;2022-11-20T03:59:56;2.20;;;1.33;;
22256;SDS011;11297;42.686;23.374;2022-11-20T04:02:21;3.10;;;1.40;;
22256;SDS011;11297;42.686;23.374;2022-11-20T04:04:47;1.30;;;1.17;;
22256;SDS011;11297;42.686;23.374;2022-11-20T04:07:12;2.40;;;0.90;;
22256;SDS011;11297;42.686;23.374;2022-11-20T04:09:37;1.53;;;1.00;;
22256;SDS011;11297;42.686;23.374;2022-11-20T04:12:03;1.40;;;1.00;;
22256;SDS011;11297;42.686;23.374;2022-11-20T04:14:28;1.83;;;1.13;;
22256;SDS011;11297;42.686;23.374;2022-11-20T04:16:54;2.40;;;1.07;;
22256;SDS011;11297;42.686;23.374;2022-11-20T04:19:19;4.43;;;1.07;;
22256;SDS011;11297;42.686;23.374;2022-11-20T04:21:44;0.90;;;0.90;;
22256;SDS011;11297;42.686;23.374;2022-11-20T04:24:10;1.93;;;1.00;;
22256;SDS011;11297;42.686;23.374;2022-11-20T04:26:36;1.60;;;1.00;;
22256;SDS011;11297;42.686;23.374;2022-11-20T04:29:02;2.70;;;1.30;;
22256;SDS011;11297;42.686;23.374;2022-11-20T04:31:28;2.30;;;1.57;;
22256;SDS011;11297;42.686;23.374;2022-11-20T04:33:58;2.07;;;1.10;;
22256;SDS011;11297;42.686;23.374;2022-11-20T04:36:28;3.03;;;0.80;;
22256;SDS011;11297;42.686;23.374;2022-11-20T04:39:01;1.97;;;1.07;;
22256;SDS011;11297;42.686;23.374;2022-11-20T04:41:29;0.67;;;0.67;;
22256;SDS011;11297;42.686;23.374;2022-11-20T04:43:59;1.87;;;1.17;;
22256;SDS011;11297;42.686;23.374;2022-11-20T04:46:28;1.77;;;1.00;;
22256;SDS011;11297;42.686;23.374;2022-11-20T04:48:54;3.70;;;1.13;;
22256;SDS011;11297;42.686;23.374;2022-11-20T04:51:20;1.63;;;1.00;;
22256;SDS011;11297;42.686;23.374;2022-11-20T04:53:45;2.47;;;1.23;;
22256;SDS011;11297;42.686;23.374;2022-11-20T04:56:11;1.30;;;1.20;;
22256;SDS011;11297;42.686;23.374;2022-11-20T04:58:38;1.77;;;1.30;;
22256;SDS011;11297;42.686;23.374;2022-11-20T05:01:05;3.47;;;1.10;;
22256;SDS011;11297;42.686;23.374;2022-11-20T05:03:32;4.70;;;3.50;;
22256;SDS011;11297;42.686;23.374;2022-11-20T05:06:01;2.20;;;1.33;;
22256;SDS011;11297;42.686;23.374;2022-11-20T05:08:28;1.97;;;1.10;;
22256;SDS011;11297;42.686;23.374;2022-11-20T05:10:59;2.63;;;1.23;;
22256;SDS011;11297;42.686;23.374;2022-11-20T05:13:28;3.03;;;1.20;;
22256;SDS011;11297;42.686;23.374;2022-11-20T05:15:53;4.00;;;1.50;;
22256;SDS011;11297;42.686;23.374;2022-11-20T05:18:19;2.27;;;1.00;;
22256;SDS011;11297;42.686;23.374;2022-11-20T05:20:44;2.47;;;1.40;;
22256;SDS011;11297;42.686;23.374;2022-11-20T05:23:09;1.37;;;1.00;;
22256;SDS011;11297;42.686;23.374;2022-11-20T05:25:35;1.30;;;1.20;;
22256;SDS011;11297;42.686;23.374;2022-11-20T05:28:00;2.03;;;1.20;;
22256;SDS011;11297;42.686;23.374;2022-11-20T05:30:26;3.00;;;1.30;;
22256;SDS011;11297;42.686;23.374;2022-11-20T05:32:51;2.37;;;1.10;;
22256;SDS011;11297;42.686;23.374;2022-11-20T05:35:16;4.57;;;1.20;;
22256;SDS011;11297;42.686;23.374;2022-11-20T05:37:42;3.43;;;1.37;;
22256;SDS011;11297;42.686;23.374;2022-11-20T05:40:07;2.07;;;1.20;;
22256;SDS011;11297;42.686;23.374;2022-11-20T05:42:33;4.73;;;1.50;;
22256;SDS011;11297;42.686;23.374;2022-11-20T05:44:59;4.00;;;1.63;;
22256;SDS011;11297;42.686;23.374;2022-11-20T05:47:27;2.00;;;1.23;;
22256;SDS011;11297;42.686;23.374;2022-11-20T05:49:55;3.03;;;1.40;;
22256;SDS011;11297;42.686;23.374;2022-11-20T05:52:21;2.50;;;1.43;;
22256;SDS011;11297;42.686;23.374;2022-11-20T05:54:46;1.63;;;1.20;;
22256;SDS011;11297;42.686;23.374;2022-11-20T05:57:11;2.47;;;1.10;;
22256;SDS011;11297;42.686;23.374;2022-11-20T05:59:37;1.93;;;1.40;;
22256;SDS011;11297;42.686;23.374;2022-11-20T06:02:02;3.13;;;1.20;;
22256;SDS011;11297;42.686;23.374;2022-11-20T06:04:28;2.27;;;1.30;;
22256;SDS011;11297;42.686;23.374;2022-11-20T06:06:53;2.37;;;1.33;;
22256;SDS011;11297;42.686;23.374;2022-11-20T06:09:19;2.60;;;1.20;;
22256;SDS011;11297;42.686;23.374;2022-11-20T06:11:44;3.30;;;1.27;;
22256;SDS011;11297;42.686;23.374;2022-11-20T06:14:09;6.33;;;1.40;;
22256;SDS011;11297;42.686;23.374;2022-11-20T06:16:35;2.77;;;1.10;;
22256;SDS011;11297;42.686;23.374;2022-11-20T06:19:00;1.93;;;1.20;;
22256;SDS011;11297;42.686;23.374;2022-11-20T06:21:26;3.23;;;1.10;;
22256;SDS011;11297;42.686;23.374;2022-11-20T06:23:52;2.47;;;1.53;;
22256;SDS011;11297;42.686;23.374;2022-11-20T06:26:22;3.17;;;1.90;;
22256;SDS011;11297;42.686;23.374;2022-11-20T06:28:52;3.07;;;1.50;;
22256;SDS011;11297;42.686;23.374;2022-11-20T06:31:18;8.97;;;1.40;;
22256;SDS011;11297;42.686;23.374;2022-11-20T06:33:45;4.77;;;1.30;;
22256;SDS011;11297;42.686;23.374;2022-11-20T06:36:12;3.60;;;1.27;;
22256;SDS011;11297;42.686;23.374;2022-11-20T06:38:39;5.40;;;1.27;;
22256;SDS011;11297;42.686;23.374;2022-11-20T06:41:05;3.07;;;1.20;;
22256;SDS011;11297;42.686;23.374;2022-11-20T06:43:35;2.40;;;1.17;;
22256;SDS011;11297;42.686;23.374;2022-11-20T06:46:01;3.07;;;1.17;;
22256;SDS011;11297;42.686;23.374;2022-11-20T06:48:26;2.60;;;1.37;;
22256;SDS011;11297;42.686;23.374;2022-11-20T06:50:53;3.67;;;1.43;;
22256;SDS011;11297;42.686;23.374;2022-11-20T06:53:18;4.80;;;1.30;;
22256;SDS011;11297;42.686;23.374;2022-11-20T06:55:44;4.30;;;1.40;;
22256;SDS011;11297;42.686;23.374;2022-11-20T06:58:15;3.87;;;1.50;;
22256;SDS011;11297;42.686;23.374;2022-11-20T07:00:41;4.57;;;1.63;;
22256;SDS011;11297;42.686;23.374;2022-11-20T07:03:07;4.73;;;1.70;;
22256;SDS011;11297;42.686;23.374;2022-11-20T07:05:34;2.67;;;1.40;;
22256;SDS011;11297;42.686;23.374;2022-11-20T07:08:00;1.67;;;1.10;;
22256;SDS011;11297;42.686;23.374;2022-11-20T07:10:26;3.90;;;1.33;;
22256;SDS011;11297;42.686;23.374;2022-11-20T07:12:52;3.73;;;1.23;;
22256;SDS011;11297;42.686;23.374;2022-11-20T07:15:20;3.47;;;1.27;;
22256;SDS011;11297;42.686;23.374;2022-11-20T07:17:46;2.37;;;1.20;;
22256;SDS011;11297;42.686;23.374;2022-11-20T07:20:12;2.20;;;1.20;;
22256;SDS011;11297;42.686;23.374;2022-11-20T07:22:38;1.77;;;1.00;;
22256;SDS011;11297;42.686;23.374;2022-11-20T07:25:05;2.30;;;1.23;;
22256;SDS011;11297;42.686;23.374;2022-11-20T07:27:31;3.57;;;1.27;;
22256;SDS011;11297;42.686;23.374;2022-11-20T07:29:57;5.07;;;1.63;;
22256;SDS011;11297;42.686;23.374;2022-11-20T07:32:22;2.83;;;1.23;;
22256;SDS011;11297;42.686;23.374;2022-11-20T07:34:48;2.57;;;1.10;;
22256;SDS011;11297;42.686;23.374;2022-11-20T07:37:13;3.93;;;1.03;;
22256;SDS011;11297;42.686;23.374;2022-11-20T07:39:39;2.33;;;1.10;;
22256;SDS011;11297;42.686;23.374;2022-11-20T07:42:05;2.70;;;1.60;;
22256;SDS011;11297;42.686;23.374;2022-11-20T07:44:31;3.23;;;1.83;;
22256;SDS011;11297;42.686;23.374;2022-11-20T07:46:57;5.80;;;2.03;;
22256;SDS011;11297;42.686;23.374;2022-11-20T07:49:22;4.17;;;1.90;;
22256;SDS011;11297;42.686;23.374;2022-11-20T07:51:49;4.27;;;2.20;;
22256;SDS011;11297;42.686;23.374;2022-11-20T07:54:16;4.00;;;1.67;;
22256;SDS011;11297;42.686;23.374;2022-11-20T07:56:41;2.07;;;1.30;;
22256;SDS011;11297;42.686;23.374;2022-11-20T07:59:07;3.20;;;1.43;;
22256;SDS011;11297;42.686;23.374;2022-11-20T08:01:32;3.47;;;1.63;;
22256;SDS011;11297;42.686;23.374;2022-11-20T08:03:58;7.07;;;1.90;;
22256;SDS011;11297;42.686;23.374;2022-11-20T08:06:23;5.80;;;1.50;;
22256;SDS011;11297;42.686;23.374;2022-11-20T08:08:49;1.90;;;1.33;;
22256;SDS011;11297;42.686;23.374;2022-11-20T08:11:15;6.23;;;1.57;;
22256;SDS011;11297;42.686;23.374;2022-11-20T08:13:59;5.97;;;1.70;;
22256;SDS011;11297;42.686;23.374;2022-11-20T08:16:37;5.13;;;1.63;;
22256;SDS011;11297;42.686;23.374;2022-11-20T08:19:06;3.03;;;1.53;;
22256;SDS011;11297;42.686;23.374;2022-11-20T08:21:32;4.53;;;1.63;;
22256;SDS011;11297;42.686;23.374;2022-11-20T08:23:58;8.73;;;3.30;;
22256;SDS011;11297;42.686;23.374;2022-11-20T08:26:24;10.50;;;5.73;;
22256;SDS011;11297;42.686;23.374;2022-11-20T08:28:53;16.73;;;9.13;;
22256;SDS011;11297;42.686;23.374;2022-11-20T08:31:20;10.97;;;6.50;;
22256;SDS011;11297;42.686;23.374;2022-11-20T08:33:45;13.63;;;3.57;;
22256;SDS011;11297;42.686;23.374;2022-11-20T08:36:11;9.27;;;3.00;;
22256;SDS011;11297;42.686;23.374;2022-11-20T08:38:36;4.30;;;2.27;;
22256;SDS011;11297;42.686;23.374;2022-11-20T08:41:02;4.70;;;1.60;;
22256;SDS011;11297;42.686;23.374;2022-11-20T08:43:47;4.87;;;2.17;;
22256;SDS011;11297;42.686;23.374;2022-11-20T08:46:13;6.10;;;1.67;;
22256;SDS011;11297;42.686;23.374;2022-11-20T08:48:39;5.83;;;2.47;;
22256;SDS011;11297;42.686;23.374;2022-11-20T08:51:04;9.30;;;3.40;;
22256;SDS011;11297;42.686;23.374;2022-11-20T08:53:30;9.80;;;5.23;;
22256;SDS011;11297;42.686;23.374;2022-11-20T08:55:56;7.60;;;4.43;;
22256;SDS011;11297;42.686;23.374;2022-11-20T08:58:22;6.27;;;2.70;;
22256;SDS011;11297;42.686;23.374;2022-11-20T09:00:47;6.17;;;2.67;;
22256;SDS011;11297;42.686;23.374;2022-11-20T09:03:12;43.03;;;23.20;;
22256;SDS011;11297;42.686;23.374;2022-11-20T09:05:38;10.67;;;4.70;;
22256;SDS011;11297;42.686;23.374;2022-11-20T09:08:03;12.20;;;10.93;;
22256;SDS011;11297;42.686;23.374;2022-11-20T09:10:29;8.10;;;4.60;;
22256;SDS011;11297;42.686;23.374;2022-11-20T09:12:54;4.27;;;2.57;;
22256;SDS011;11297;42.686;23.374;2022-11-20T09:15:20;6.63;;;3.37;;
22256;SDS011;11297;42.686;23.374;2022-11-20T09:17:56;5.50;;;2.70;;
22256;SDS011;11297;42.686;23.374;2022-11-20T09:20:23;2.80;;;1.60;;
22256;SDS011;11297;42.686;23.374;2022-11-20T09:22:49;4.60;;;2.10;;
22256;SDS011;11297;42.686;23.374;2022-11-20T09:25:15;4.07;;;2.53;;
22256;SDS011;11297;42.686;23.374;2022-11-20T09:27:40;3.47;;;1.80;;
22256;SDS011;11297;42.686;23.374;2022-11-20T09:30:11;4.37;;;2.23;;
22256;SDS011;11297;42.686;23.374;2022-11-20T09:32:38;5.90;;;2.10;;
22256;SDS011;11297;42.686;23.374;2022-11-20T09:35:04;2.53;;;1.73;;
22256;SDS011;11297;42.686;23.374;2022-11-20T09:37:29;4.13;;;2.00;;
22256;SDS011;11297;42.686;23.374;2022-11-20T09:39:54;3.83;;;1.80;;
22256;SDS011;11297;42.686;23.374;2022-11-20T09:42:24;4.23;;;1.40;;
22256;SDS011;11297;42.686;23.374;2022-11-20T09:45:01;3.13;;;1.60;;
22256;SDS011;11297;42.686;23.374;2022-11-20T09:47:42;3.57;;;1.47;;
22256;SDS011;11297;42.686;23.374;2022-11-20T09:50:25;3.77;;;1.30;;
22256;SDS011;11297;42.686;23.374;2022-11-20T09:55:48;2.33;;;1.50;;
22256;SDS011;11297;42.686;23.374;2022-11-20T09:58:16;2.67;;;1.70;;
22256;SDS011;11297;42.686;23.374;2022-11-20T10:00:59;3.30;;;1.23;;
22256;SDS011;11297;42.686;23.374;2022-11-20T10:03:36;2.87;;;1.37;;
22256;SDS011;11297;42.686;23.374;2022-11-20T10:06:11;2.87;;;1.80;;
22256;SDS011;11297;42.686;23.374;2022-11-20T10:08:41;18.20;;;13.93;;
22256;SDS011;11297;42.686;23.374;2022-11-20T10:11:33;14.70;;;11.27;;
22256;SDS011;11297;42.686;23.374;2022-11-20T10:16:50;13.67;;;8.87;;
22256;SDS011;11297;42.686;23.374;2022-11-20T10:25:06;21.60;;;11.00;;
22256;SDS011;11297;42.686;23.374;2022-11-20T10:27:44;19.07;;;9.10;;
22256;SDS011;11297;42.686;23.374;2022-11-20T10:30:25;5.67;;;4.03;;
22256;SDS011;11297;42.686;23.374;2022-11-20T10:32:53;5.87;;;3.73;;
22256;SDS011;11297;42.686;23.374;2022-11-20T10:35:28;5.83;;;3.57;;
22256;SDS011;11297;42.686;23.374;2022-11-20T10:38:08;7.70;;;3.33;;
22256;SDS011;11297;42.686;23.374;2022-11-20T10:40:45;8.63;;;3.83;;
22256;SDS011;11297;42.686;23.374;2022-11-20T10:43:21;7.83;;;4.80;;
22256;SDS011;11297;42.686;23.374;2022-11-20T10:45:56;9.43;;;4.50;;
22256;SDS011;11297;42.686;23.374;2022-11-20T10:48:24;8.00;;;3.87;;
22256;SDS011;11297;42.686;23.374;2022-11-20T10:50:59;7.50;;;4.43;;
22256;SDS011;11297;42.686;23.374;2022-11-20T10:53:49;6.97;;;3.90;;
22256;SDS011;11297;42.686;23.374;2022-11-20T11:01:23;7.13;;;4.23;;
22256;SDS011;11297;42.686;23.374;2022-11-20T11:03:49;8.77;;;4.30;;
22256;SDS011;11297;42.686;23.374;2022-11-20T11:09:00;5.87;;;4.40;;
22256;SDS011;11297;42.686;23.374;2022-11-20T11:11:30;5.60;;;4.10;;
22256;SDS011;11297;42.686;23.374;2022-11-20T11:14:30;8.50;;;4.97;;
22256;SDS011;11297;42.686;23.374;2022-11-20T11:19:19;9.07;;;4.03;;
22256;SDS011;11297;42.686;23.374;2022-11-20T11:21:49;6.10;;;2.93;;
22256;SDS011;11297;42.686;23.374;2022-11-20T11:24:21;6.10;;;2.60;;
22256;SDS011;11297;42.686;23.374;2022-11-20T11:29:24;1.90;;;1.43;;
22256;SDS011;11297;42.686;23.374;2022-11-20T11:32:04;1.13;;;1.03;;
22256;SDS011;11297;42.686;23.374;2022-11-20T11:34:31;4.33;;;1.70;;
22256;SDS011;11297;42.686;23.374;2022-11-20T11:36:57;2.50;;;1.30;;
22256;SDS011;11297;42.686;23.374;2022-11-20T11:39:24;2.53;;;1.10;;
22256;SDS011;11297;42.686;23.374;2022-11-20T11:41:52;2.17;;;2.03;;
22256;SDS011;11297;42.686;23.374;2022-11-20T11:44:22;1.67;;;1.50;;
22256;SDS011;11297;42.686;23.374;2022-11-20T11:47:17;2.17;;;1.50;;
22256;SDS011;11297;42.686;23.374;2022-11-20T11:49:49;1.73;;;1.27;;
22256;SDS011;11297;42.686;23.374;2022-11-20T11:52:25;1.63;;;1.17;;
22256;SDS011;11297;42.686;23.374;2022-11-20T11:54:57;2.83;;;1.70;;
22256;SDS011;11297;42.686;23.374;2022-11-20T11:57:40;2.53;;;1.57;;
22256;SDS011;11297;42.686;23.374;2022-11-20T12:00:14;4.17;;;1.77;;
22256;SDS011;11297;42.686;23.374;2022-11-20T12:05:26;3.40;;;2.10;;
22256;SDS011;11297;42.686;23.374;2022-11-20T12:10:45;4.77;;;2.57;;
22256;SDS011;11297;42.686;23.374;2022-11-20T12:16:03;6.87;;;1.77;;
22256;SDS011;11297;42.686;23.374;2022-11-20T12:18:30;4.70;;;2.10;;
22256;SDS011;11297;42.686;23.374;2022-11-20T12:29:19;1.57;;;0.80;;
22256;SDS011;11297;42.686;23.374;2022-11-20T12:37:42;1.97;;;1.50;;
22256;SDS011;11297;42.686;23.374;2022-11-20T12:40:29;1.33;;;1.13;;
22256;SDS011;11297;42.686;23.374;2022-11-20T12:57:21;2.00;;;1.80;;
22256;SDS011;11297;42.686;23.374;2022-11-20T12:59:59;3.00;;;2.60;;
22256;SDS011;11297;42.686;23.374;2022-11-20T13:05:15;6.00;;;5.07;;
22256;SDS011;11297;42.686;23.374;2022-11-20T13:07:42;3.90;;;3.50;;
22256;SDS011;11297;42.686;23.374;2022-11-20T13:10:13;5.30;;;2.60;;
22256;SDS011;11297;42.686;23.374;2022-11-20T13:12:49;8.23;;;4.07;;
22256;SDS011;11297;42.686;23.374;2022-11-20T13:15:29;7.95;;;3.92;;
22256;SDS011;11297;42.686;23.374;2022-11-20T13:18:00;17.43;;;8.33;;
22256;SDS011;11297;42.686;23.374;2022-11-20T13:20:27;12.53;;;8.27;;
22256;SDS011;11297;42.686;23.374;2022-11-20T13:22:55;8.90;;;4.90;;
22256;SDS011;11297;42.686;23.374;2022-11-20T13:25:31;6.80;;;4.00;;
22256;SDS011;11297;42.686;23.374;2022-11-20T13:28:01;6.13;;;3.93;;
22256;SDS011;11297;42.686;23.374;2022-11-20T13:30:34;7.33;;;3.80;;
22256;SDS011;11297;42.686;23.374;2022-11-20T13:38:17;6.97;;;2.90;;
22256;SDS011;11297;42.686;23.374;2022-11-20T13:40:53;6.10;;;3.03;;
22256;SDS011;11297;42.686;23.374;2022-11-20T13:45:58;6.07;;;2.73;;
22256;SDS011;11297;42.686;23.374;2022-11-20T13:48:30;8.97;;;3.60;;
22256;SDS011;11297;42.686;23.374;2022-11-20T13:51:45;7.13;;;5.07;;
22256;SDS011;11297;42.686;23.374;2022-11-20T13:59:58;6.03;;;4.40;;
22256;SDS011;11297;42.686;23.374;2022-11-20T14:02:35;10.00;;;6.50;;
22256;SDS011;11297;42.686;23.374;2022-11-20T14:05:01;7.23;;;4.30;;
22256;SDS011;11297;42.686;23.374;2022-11-20T14:07:32;7.50;;;4.10;;
22256;SDS011;11297;42.686;23.374;2022-11-20T14:10:02;8.53;;;4.20;;
22256;SDS011;11297;42.686;23.374;2022-11-20T14:12:29;6.37;;;4.40;;
22256;SDS011;11297;42.686;23.374;2022-11-20T14:14:55;8.50;;;4.33;;
22256;SDS011;11297;42.686;23.374;2022-11-20T14:17:22;4.87;;;3.60;;
22256;SDS011;11297;42.686;23.374;2022-11-20T14:19:54;5.97;;;3.77;;
22256;SDS011;11297;42.686;23.374;2022-11-20T14:22:26;8.77;;;4.20;;
22256;SDS011;11297;42.686;23.374;2022-11-20T14:27:29;5.97;;;4.10;;
22256;SDS011;11297;42.686;23.374;2022-11-20T14:30:00;5.13;;;3.90;;
22256;SDS011;11297;42.686;23.374;2022-11-20T14:32:26;6.00;;;4.27;;
22256;SDS011;11297;42.686;23.374;2022-11-20T14:34:54;6.27;;;3.90;;
22256;SDS011;11297;42.686;23.374;2022-11-20T14:37:33;6.30;;;3.93;;
22256;SDS011;11297;42.686;23.374;2022-11-20T14:40:05;12.03;;;5.23;;
22256;SDS011;11297;42.686;23.374;2022-11-20T14:42:46;9.30;;;5.63;;
22256;SDS011;11297;42.686;23.374;2022-11-20T14:45:12;11.57;;;7.23;;
22256;SDS011;11297;42.686;23.374;2022-11-20T14:47:38;8.23;;;5.70;;
22256;SDS011;11297;42.686;23.374;2022-11-20T14:50:07;10.37;;;5.90;;
22256;SDS011;11297;42.686;23.374;2022-11-20T14:52:39;10.70;;;6.30;;
22256;SDS011;11297;42.686;23.374;2022-11-20T14:55:25;9.47;;;5.93;;
22256;SDS011;11297;42.686;23.374;2022-11-20T14:57:56;10.07;;;6.07;;
22256;SDS011;11297;42.686;23.374;2022-11-20T15:00:24;9.70;;;6.23;;
22256;SDS011;11297;42.686;23.374;2022-11-20T15:02:51;9.97;;;6.90;;
22256;SDS011;11297;42.686;23.374;2022-11-20T15:05:18;9.67;;;6.90;;
22256;SDS011;11297;42.686;23.374;2022-11-20T15:07:46;11.03;;;6.93;;
22256;SDS011;11297;42.686;23.374;2022-11-20T15:10:24;10.30;;;7.17;;
22256;SDS011;11297;42.686;23.374;2022-11-20T15:15:31;12.80;;;6.17;;
22256;SDS011;11297;42.686;23.374;2022-11-20T15:18:01;10.70;;;6.40;;
22256;SDS011;11297;42.686;23.374;2022-11-20T15:20:28;10.00;;;6.77;;
22256;SDS011;11297;42.686;23.374;2022-11-20T15:22:56;9.07;;;5.20;;
22256;SDS011;11297;42.686;23.374;2022-11-20T15:25:22;11.03;;;6.37;;
22256;SDS011;11297;42.686;23.374;2022-11-20T15:27:49;8.07;;;5.80;;
22256;SDS011;11297;42.686;23.374;2022-11-20T15:30:19;7.23;;;5.03;;
22256;SDS011;11297;42.686;23.374;2022-11-20T15:32:46;7.20;;;4.03;;
22256;SDS011;11297;42.686;23.374;2022-11-20T15:35:12;6.53;;;4.47;;
22256;SDS011;11297;42.686;23.374;2022-11-20T15:37:38;5.33;;;4.00;;
22256;SDS011;11297;42.686;23.374;2022-11-20T15:40:05;5.80;;;4.27;;
22256;SDS011;11297;42.686;23.374;2022-11-20T15:42:31;5.23;;;3.70;;
22256;SDS011;11297;42.686;23.374;2022-11-20T15:44:57;6.00;;;4.30;;
22256;SDS011;11297;42.686;23.374;2022-11-20T15:47:25;6.17;;;3.90;;
22256;SDS011;11297;42.686;23.374;2022-11-20T15:49:53;5.53;;;3.20;;
22256;SDS011;11297;42.686;23.374;2022-11-20T15:52:18;4.50;;;2.70;;
22256;SDS011;11297;42.686;23.374;2022-11-20T15:54:43;3.43;;;2.77;;
22256;SDS011;11297;42.686;23.374;2022-11-20T15:57:09;4.57;;;2.70;;
22256;SDS011;11297;42.686;23.374;2022-11-20T15:59:34;3.90;;;2.17;;
22256;SDS011;11297;42.686;23.374;2022-11-20T16:02:08;2.10;;;1.60;;
22256;SDS011;11297;42.686;23.374;2022-11-20T16:04:34;2.77;;;2.30;;
22256;SDS011;11297;42.686;23.374;2022-11-20T16:07:00;2.40;;;2.20;;
22256;SDS011;11297;42.686;23.374;2022-11-20T16:09:25;3.77;;;2.57;;